Time;durP1;ratioP1;P1;durP2;ratioP2;P2;SDS_P1;SDS_P2;PMS_P1;PMS_P2;Temp;Humidity;BMP_temperature;BMP_pressure;BME280_temperature;BME280_humidity;BME280_pressure;Samples;Min_cycle;Max_cycle;Signal;HPM_P1;HPM_P2
2023/10/07 00:00:47;;;;;;;16.75;12.48;;;;;;;;;;2075371;28;20033;-57
2023/10/07 00:02:12;;;;;;;20.98;13.52;;;;;;;;;;2078466;28;20030;-57
2023/10/07 00:03:31;;;;;;;24.48;14.15;;;;;;;;;;2078103;28;20486;-57
2023/10/07 00:04:50;;;;;;;17.63;11.93;;;;;;;;;;2078108;28;20393;-57
2023/10/07 00:06:10;;;;;;;19.98;12.73;;;;;;;;;;2075638;28;20042;-58
2023/10/07 00:07:31;;;;;;;20.52;13.30;;;;;;;;;;2078161;28;20038;-57
2023/10/07 00:08:51;;;;;;;20.50;13.45;;;;;;;;;;2075535;28;20030;-57
2023/10/07 00:10:15;;;;;;;19.95;12.98;;;;;;;;;;2078094;28;20113;-58
2023/10/07 00:11:34;;;;;;;21.60;14.05;;;;;;;;;;2078215;28;20401;-57
2023/10/07 00:12:57;;;;;;;22.80;13.88;;;;;;;;;;2075360;28;20038;-57
2023/10/07 00:14:16;;;;;;;19.95;12.98;;;;;;;;;;2075287;28;20466;-57
2023/10/07 00:15:42;;;;;;;17.98;12.45;;;;;;;;;;2076209;28;20057;-57
2023/10/07 00:17:05;;;;;;;21.45;13.80;;;;;;;;;;2078186;28;20046;-57
2023/10/07 00:18:26;;;;;;;20.50;14.02;;;;;;;;;;2075584;28;20104;-57
2023/10/07 00:19:46;;;;;;;22.52;14.27;;;;;;;;;;2078044;28;20041;-57
2023/10/07 00:21:07;;;;;;;22.58;13.00;;;;;;;;;;2078281;28;20041;-57
2023/10/07 00:22:26;;;;;;;20.70;13.25;;;;;;;;;;2077885;28;20033;-57
2023/10/07 00:23:45;;;;;;;21.85;13.32;;;;;;;;;;2075449;28;20045;-57
2023/10/07 00:25:05;;;;;;;20.48;12.90;;;;;;;;;;2075301;28;20042;-57
2023/10/07 00:26:27;;;;;;;20.95;12.98;;;;;;;;;;2078038;28;20034;-57
2023/10/07 00:27:48;;;;;;;20.45;12.98;;;;;;;;;;2075325;28;20049;-58
2023/10/07 00:29:11;;;;;;;20.08;13.05;;;;;;;;;;2075281;28;20041;-57
2023/10/07 00:30:32;;;;;;;18.80;12.70;;;;;;;;;;2075393;28;20042;-57
2023/10/07 00:31:52;;;;;;;22.80;14.40;;;;;;;;;;2075128;28;20038;-57
2023/10/07 00:33:13;;;;;;;19.67;13.02;;;;;;;;;;2077393;28;20037;-57
2023/10/07 00:34:32;;;;;;;22.23;13.98;;;;;;;;;;2075103;28;20037;-56
2023/10/07 00:35:55;;;;;;;20.52;14.00;;;;;;;;;;2077927;28;20050;-57
2023/10/07 00:37:18;;;;;;;19.17;12.73;;;;;;;;;;2075222;28;20038;-57
2023/10/07 00:38:37;;;;;;;18.08;13.48;;;;;;;;;;2077183;28;20042;-57
2023/10/07 00:40:12;;;;;;;22.27;14.00;;;;;;;;;;2074787;28;20042;-57
2023/10/07 00:41:39;;;;;;;20.00;12.93;;;;;;;;;;2075058;28;20394;-57
2023/10/07 00:42:58;;;;;;;22.25;13.25;;;;;;;;;;2075129;28;20381;-57
2023/10/07 00:44:21;;;;;;;21.83;13.45;;;;;;;;;;2077817;28;20486;-57
2023/10/07 00:45:40;;;;;;;19.48;13.20;;;;;;;;;;2077044;28;20034;-57
2023/10/07 00:48:37;;;;;;;20.58;12.98;;;;;;;;;;2075011;28;20560;-57
2023/10/07 00:49:57;;;;;;;21.33;13.07;;;;;;;;;;2077261;28;20041;-57
2023/10/07 00:51:22;;;;;;;21.17;11.82;;;;;;;;;;2077732;28;20034;-57
2023/10/07 00:52:48;;;;;;;16.83;11.60;;;;;;;;;;2075010;28;20413;-57
2023/10/07 00:55:46;;;;;;;22.45;12.27;;;;;;;;;;2074851;28;20406;-58
2023/10/07 00:57:13;;;;;;;20.35;12.45;;;;;;;;;;2077232;28;20402;-57
2023/10/07 00:58:35;;;;;;;19.80;12.85;;;;;;;;;;2072353;28;20042;-57
2023/10/07 00:59:57;;;;;;;21.85;13.40;;;;;;;;;;2075431;28;20038;-57
2023/10/07 01:01:19;;;;;;;19.17;12.63;;;;;;;;;;2074916;28;20042;-57
2023/10/07 01:02:39;;;;;;;18.42;12.75;;;;;;;;;;2075038;28;20046;-57
2023/10/07 01:04:01;;;;;;;20.52;13.10;;;;;;;;;;2075237;28;20042;-57
2023/10/07 01:05:32;;;;;;;21.25;13.55;;;;;;;;;;2077107;28;20037;-57
2023/10/07 01:07:02;;;;;;;19.58;13.15;;;;;;;;;;2074899;28;20041;-57
2023/10/07 01:08:27;;;;;;;22.95;14.35;;;;;;;;;;2074834;28;20026;-58
2023/10/07 01:10:14;;;;;;;22.25;13.45;;;;;;;;;;2075117;28;20041;-57
2023/10/07 01:11:37;;;;;;;21.17;14.57;;;;;;;;;;2077589;28;20042;-57
2023/10/07 01:13:01;;;;;;;21.10;13.70;;;;;;;;;;2077570;28;20398;-57
2023/10/07 01:14:21;;;;;;;23.42;15.32;;;;;;;;;;2074834;28;20029;-57
2023/10/07 01:15:40;;;;;;;23.77;14.70;;;;;;;;;;2076542;28;20058;-57
2023/10/07 01:17:00;;;;;;;23.52;15.18;;;;;;;;;;2074884;28;20418;-57
2023/10/07 01:18:19;;;;;;;23.83;16.17;;;;;;;;;;2077245;28;20038;-57
2023/10/07 01:19:51;;;;;;;21.77;14.77;;;;;;;;;;2074590;28;20046;-57
2023/10/07 01:21:12;;;;;;;20.92;14.77;;;;;;;;;;2077005;28;20034;-57
2023/10/07 01:22:35;;;;;;;23.77;13.75;;;;;;;;;;2066028;28;20442;-57
2023/10/07 01:23:55;;;;;;;20.95;14.30;;;;;;;;;;2075091;28;20414;-57
2023/10/07 01:25:18;;;;;;;24.00;14.63;;;;;;;;;;2075135;28;20041;-57
2023/10/07 01:26:41;;;;;;;24.52;15.55;;;;;;;;;;2077453;28;20484;-57
2023/10/07 01:28:02;;;;;;;21.98;14.20;;;;;;;;;;2077733;28;20038;-57
2023/10/07 01:29:22;;;;;;;21.92;15.27;;;;;;;;;;2077111;28;20042;-58
2023/10/07 01:30:47;;;;;;;22.88;15.68;;;;;;;;;;2074591;28;20038;-58
2023/10/07 01:32:12;;;;;;;22.92;15.70;;;;;;;;;;2074887;28;20063;-58
2023/10/07 01:33:46;;;;;;;25.55;15.98;;;;;;;;;;2074897;28;20041;-58
2023/10/07 01:35:11;;;;;;;28.27;17.40;;;;;;;;;;2074721;28;20037;-57
2023/10/07 01:36:30;;;;;;;27.98;18.33;;;;;;;;;;2077066;28;20042;-57
2023/10/07 01:37:59;;;;;;;28.00;17.95;;;;;;;;;;2073703;28;20048;-58
2023/10/07 01:39:19;;;;;;;29.65;18.25;;;;;;;;;;2074457;28;20042;-57
2023/10/07 01:42:26;;;;;;;26.65;17.73;;;;;;;;;;2075593;28;20037;-62
2023/10/07 01:44:04;;;;;;;28.67;18.45;;;;;;;;;;2075997;28;20041;-58
2023/10/07 01:45:34;;;;;;;29.73;18.00;;;;;;;;;;2075469;28;20398;-57
2023/10/07 01:46:56;;;;;;;25.55;16.83;;;;;;;;;;2075482;28;20046;-57
2023/10/07 01:48:17;;;;;;;27.48;17.80;;;;;;;;;;2075435;28;20038;-58
2023/10/07 01:49:37;;;;;;;29.38;18.15;;;;;;;;;;2075726;28;20053;-58
2023/10/07 01:50:57;;;;;;;28.85;19.13;;;;;;;;;;2077562;28;20042;-58
2023/10/07 01:52:17;;;;;;;32.17;20.45;;;;;;;;;;2075209;28;20037;-57
2023/10/07 01:53:38;;;;;;;34.08;20.85;;;;;;;;;;2075256;28;20038;-58
2023/10/07 01:54:58;;;;;;;35.72;22.58;;;;;;;;;;2075573;28;20042;-57
2023/10/07 01:56:18;;;;;;;30.85;21.40;;;;;;;;;;2075374;28;20050;-58
2023/10/07 01:57:40;;;;;;;34.13;20.92;;;;;;;;;;2077544;28;20497;-62
2023/10/07 01:59:09;;;;;;;35.40;23.67;;;;;;;;;;2074854;28;20478;-58
2023/10/07 02:00:44;;;;;;;38.72;23.80;;;;;;;;;;2075779;28;20037;-58
2023/10/07 02:02:06;;;;;;;37.80;21.70;;;;;;;;;;2077753;28;20038;-63
2023/10/07 02:03:25;;;;;;;34.03;22.48;;;;;;;;;;2075521;28;20478;-58
2023/10/07 02:04:46;;;;;;;36.80;22.08;;;;;;;;;;2077674;28;20046;-58
2023/10/07 02:06:06;;;;;;;36.15;23.50;;;;;;;;;;2075314;28;20034;-58
2023/10/07 02:07:27;;;;;;;38.38;23.75;;;;;;;;;;2075080;28;20042;-63
2023/10/07 02:08:46;;;;;;;36.45;22.63;;;;;;;;;;2077476;28;20033;-58
2023/10/07 02:10:05;;;;;;;35.40;23.92;;;;;;;;;;2074205;28;20037;-58
2023/10/07 02:11:31;;;;;;;35.67;23.45;;;;;;;;;;2073992;28;20034;-57
2023/10/07 02:12:53;;;;;;;37.92;24.70;;;;;;;;;;2074617;28;20421;-57
2023/10/07 02:14:12;;;;;;;40.55;24.08;;;;;;;;;;2074463;28;20033;-58
2023/10/07 02:15:37;;;;;;;35.78;23.45;;;;;;;;;;2075331;28;20037;-59
2023/10/07 02:16:56;;;;;;;43.75;26.60;;;;;;;;;;2076735;28;20490;-58
2023/10/07 02:18:15;;;;;;;36.42;23.23;;;;;;;;;;2073752;28;20041;-66
2023/10/07 02:19:35;;;;;;;35.97;23.63;;;;;;;;;;2073528;28;20030;-57
2023/10/07 02:21:12;;;;;;;42.08;26.42;;;;;;;;;;2074211;28;20062;-57
2023/10/07 02:22:32;;;;;;;39.17;22.70;;;;;;;;;;2074931;28;20481;-59
2023/10/07 02:23:51;;;;;;;38.33;24.20;;;;;;;;;;2075352;28;20255;-57
2023/10/07 02:25:10;;;;;;;39.95;24.50;;;;;;;;;;2076983;28;20046;-57
2023/10/07 02:26:32;;;;;;;36.47;24.33;;;;;;;;;;2074511;28;20394;-57
2023/10/07 02:27:51;;;;;;;38.33;24.75;;;;;;;;;;2077276;28;20038;-57
2023/10/07 02:29:13;;;;;;;40.80;25.10;;;;;;;;;;2074270;28;20486;-57
2023/10/07 02:30:39;;;;;;;39.45;25.25;;;;;;;;;;2074401;28;20034;-57
2023/10/07 02:32:14;;;;;;;39.47;24.90;;;;;;;;;;2077188;28;20049;-57
2023/10/07 02:33:41;;;;;;;41.88;25.02;;;;;;;;;;2076566;28;20038;-58
2023/10/07 02:35:01;;;;;;;43.10;24.77;;;;;;;;;;2076580;28;20053;-57
2023/10/07 02:36:32;;;;;;;41.65;26.33;;;;;;;;;;2074007;28;20046;-58
2023/10/07 02:37:52;;;;;;;46.97;26.88;;;;;;;;;;2076610;28;20033;-57
2023/10/07 02:39:24;;;;;;;45.50;26.55;;;;;;;;;;2076769;28;20042;-57
2023/10/07 02:40:49;;;;;;;43.35;26.88;;;;;;;;;;2074414;28;20042;-57
2023/10/07 02:42:09;;;;;;;44.85;28.05;;;;;;;;;;2076453;28;20034;-57
2023/10/07 02:43:28;;;;;;;43.38;27.33;;;;;;;;;;2074133;28;20045;-58
2023/10/07 02:46:38;;;;;;;44.85;28.10;;;;;;;;;;2076406;28;20433;-58
2023/10/07 02:48:01;;;;;;;46.78;27.58;;;;;;;;;;2073849;28;20486;-57
2023/10/07 02:49:25;;;;;;;44.72;28.20;;;;;;;;;;2074058;28;20038;-57
2023/10/07 02:50:44;;;;;;;45.45;28.05;;;;;;;;;;2074069;28;20046;-58
2023/10/07 02:52:03;;;;;;;39.72;26.48;;;;;;;;;;2076981;28;20394;-58
2023/10/07 02:53:22;;;;;;;44.03;26.67;;;;;;;;;;2074049;28;20046;-58
2023/10/07 02:54:41;;;;;;;47.85;27.88;;;;;;;;;;2076696;28;20042;-58
2023/10/07 02:56:16;;;;;;;43.65;26.95;;;;;;;;;;2073864;28;20037;-58
2023/10/07 02:57:39;;;;;;;43.85;26.90;;;;;;;;;;2074197;28;20485;-57
2023/10/07 02:59:03;;;;;;;47.83;28.35;;;;;;;;;;2073959;28;20046;-57
2023/10/07 03:00:29;;;;;;;42.85;25.58;;;;;;;;;;2074189;28;20393;-57
2023/10/07 03:02:12;;;;;;;44.38;28.63;;;;;;;;;;2076325;28;20042;-58
2023/10/07 03:03:33;;;;;;;39.22;25.90;;;;;;;;;;2075473;28;20061;-58
2023/10/07 03:05:05;;;;;;;42.90;27.38;;;;;;;;;;2074059;28;20050;-57
2023/10/07 03:06:28;;;;;;;42.33;26.25;;;;;;;;;;2076646;28;20033;-57
2023/10/07 03:08:01;;;;;;;43.67;26.70;;;;;;;;;;2073945;28;20037;-57
2023/10/07 03:09:20;;;;;;;45.05;27.98;;;;;;;;;;2074036;28;20038;-58
2023/10/07 03:10:44;;;;;;;39.65;26.90;;;;;;;;;;2074105;28;20477;-57
2023/10/07 03:12:04;;;;;;;42.83;25.85;;;;;;;;;;2074036;28;20038;-57
2023/10/07 03:13:24;;;;;;;39.55;26.95;;;;;;;;;;2074161;28;20398;-57
2023/10/07 03:14:43;;;;;;;44.67;26.95;;;;;;;;;;2075634;28;20030;-57
2023/10/07 03:17:39;;;;;;;43.80;26.55;;;;;;;;;;2073986;28;20389;-57
2023/10/07 03:23:14;;;;;;;46.92;29.05;;;;;;;;;;2074078;28;20042;-57
2023/10/07 03:24:41;;;;;;;47.55;27.65;;;;;;;;;;2074042;28;20037;-57
2023/10/07 03:27:25;;;;;;;47.92;27.40;;;;;;;;;;2073957;28;20486;-58
2023/10/07 03:28:55;;;;;;;43.72;27.80;;;;;;;;;;2076571;28;20482;-57
2023/10/07 03:30:18;;;;;;;44.47;26.15;;;;;;;;;;2073946;28;20397;-57
2023/10/07 03:31:47;;;;;;;48.05;27.05;;;;;;;;;;2076605;28;20042;-57
2023/10/07 03:33:08;;;;;;;44.92;28.13;;;;;;;;;;2076668;28;20041;-57
2023/10/07 03:34:28;;;;;;;48.45;28.65;;;;;;;;;;2073904;28;20041;-58
2023/10/07 03:36:31;;;;;;;50.88;29.15;;;;;;;;;;2076639;28;20037;-57
2023/10/07 03:37:33;;;;;;;47.08;28.48;;;;;;;;;;2073662;28;20042;-57
2023/10/07 03:38:57;;;;;;;47.95;28.35;;;;;;;;;;2076603;28;20390;-57
2023/10/07 03:40:26;;;;;;;46.05;28.73;;;;;;;;;;2076716;28;20034;-57
2023/10/07 03:41:52;;;;;;;46.95;29.33;;;;;;;;;;2073896;28;20049;-57
2023/10/07 03:43:11;;;;;;;53.25;29.60;;;;;;;;;;2076571;28;20049;-57
2023/10/07 03:44:31;;;;;;;52.45;31.20;;;;;;;;;;2073740;28;20042;-57
2023/10/07 03:45:50;;;;;;;52.83;31.27;;;;;;;;;;2076556;28;20045;-58
2023/10/07 03:47:10;;;;;;;50.70;31.10;;;;;;;;;;2076594;28;20037;-57
2023/10/07 03:48:32;;;;;;;57.17;31.27;;;;;;;;;;2076522;28;20042;-57
2023/10/07 03:49:58;;;;;;;55.25;30.38;;;;;;;;;;2076608;28;20038;-57
2023/10/07 03:51:17;;;;;;;52.38;30.58;;;;;;;;;;2076617;28;20038;-57
2023/10/07 03:52:37;;;;;;;53.40;30.70;;;;;;;;;;2073890;28;20038;-57
2023/10/07 03:54:09;;;;;;;50.55;30.60;;;;;;;;;;2076505;28;20037;-58
2023/10/07 03:55:29;;;;;;;48.65;29.52;;;;;;;;;;2076634;28;20389;-58
2023/10/07 03:56:49;;;;;;;53.03;30.67;;;;;;;;;;2074034;28;20042;-57
2023/10/07 03:58:08;;;;;;;52.28;29.90;;;;;;;;;;2076589;28;20030;-58
2023/10/07 03:59:31;;;;;;;52.28;31.73;;;;;;;;;;2076569;28;20038;-57
2023/10/07 04:00:51;;;;;;;55.28;32.95;;;;;;;;;;2073728;28;20046;-57
2023/10/07 04:03:49;;;;;;;57.45;33.17;;;;;;;;;;2076609;28;20034;-57
2023/10/07 04:05:12;;;;;;;56.83;33.45;;;;;;;;;;2073839;28;20042;-58
2023/10/07 04:06:32;;;;;;;64.15;35.17;;;;;;;;;;2076461;28;20041;-58
2023/10/07 04:07:51;;;;;;;59.97;35.45;;;;;;;;;;2076680;28;20038;-57
2023/10/07 04:09:11;;;;;;;59.20;34.15;;;;;;;;;;2073760;28;20041;-58
2023/10/07 04:10:36;;;;;;;60.47;33.50;;;;;;;;;;2076599;28;20042;-58
2023/10/07 04:11:56;;;;;;;58.63;34.13;;;;;;;;;;2073875;28;20038;-58
2023/10/07 04:13:21;;;;;;;53.25;33.10;;;;;;;;;;2073803;28;20041;-58
2023/10/07 04:14:42;;;;;;;51.20;30.95;;;;;;;;;;2073539;28;20034;-58
2023/10/07 04:16:02;;;;;;;54.50;32.67;;;;;;;;;;2073758;28;20058;-58
2023/10/07 04:17:23;;;;;;;57.33;31.40;;;;;;;;;;2076472;28;20042;-58
2023/10/07 04:18:43;;;;;;;56.55;32.35;;;;;;;;;;2073750;28;20482;-58
2023/10/07 04:20:18;;;;;;;57.20;32.97;;;;;;;;;;2076655;28;20042;-58
2023/10/07 04:21:39;;;;;;;54.40;32.42;;;;;;;;;;2076543;28;20026;-58
2023/10/07 04:23:00;;;;;;;52.35;31.63;;;;;;;;;;2076517;28;20042;-58
2023/10/07 04:24:19;;;;;;;54.33;32.38;;;;;;;;;;2073629;28;20046;-58
2023/10/07 04:25:47;;;;;;;55.22;32.25;;;;;;;;;;2073766;28;20029;-58
2023/10/07 04:27:07;;;;;;;55.13;32.10;;;;;;;;;;2073615;28;20409;-58
2023/10/07 04:28:26;;;;;;;53.50;31.02;;;;;;;;;;2076404;28;20034;-58
2023/10/07 04:29:46;;;;;;;54.35;30.40;;;;;;;;;;2076227;28;20041;-57
2023/10/07 04:31:12;;;;;;;52.15;32.13;;;;;;;;;;2077314;28;20041;-57
2023/10/07 04:32:34;;;;;;;49.45;30.10;;;;;;;;;;2077910;28;20042;-57
2023/10/07 04:33:54;;;;;;;48.67;29.67;;;;;;;;;;2077802;28;20042;-57
2023/10/07 04:35:16;;;;;;;51.95;30.90;;;;;;;;;;2077880;28;20034;-57
2023/10/07 04:36:54;;;;;;;46.85;29.77;;;;;;;;;;2077865;28;20033;-58
2023/10/07 04:43:25;;;;;;;60.72;31.77;;;;;;;;;;2077855;28;20474;-58
2023/10/07 04:44:27;;;;;;;56.58;33.33;;;;;;;;;;2075244;28;20042;-57
2023/10/07 04:45:49;;;;;;;54.60;32.95;;;;;;;;;;2077798;28;20482;-58
2023/10/07 04:48:56;;;;;;;55.40;32.90;;;;;;;;;;2075154;28;20042;-58
2023/10/07 04:50:16;;;;;;;58.10;31.98;;;;;;;;;;2077674;28;20042;-58
2023/10/07 04:51:46;;;;;;;60.45;34.63;;;;;;;;;;2076895;28;20030;-58
2023/10/07 04:53:05;;;;;;;58.67;32.97;;;;;;;;;;2074433;28;20030;-57
2023/10/07 04:54:25;;;;;;;66.43;34.45;;;;;;;;;;2077615;28;20046;-57
2023/10/07 04:55:45;;;;;;;58.97;33.15;;;;;;;;;;2075110;28;20034;-58
2023/10/07 04:57:09;;;;;;;64.00;36.40;;;;;;;;;;2077363;28;20038;-58
2023/10/07 04:58:29;;;;;;;54.45;34.15;;;;;;;;;;2075118;28;20041;-57
2023/10/07 04:59:48;;;;;;;66.40;38.05;;;;;;;;;;2077872;28;20478;-58
2023/10/07 05:01:31;;;;;;;63.83;36.95;;;;;;;;;;2077823;28;20038;-58
2023/10/07 05:02:50;;;;;;;60.80;34.53;;;;;;;;;;2077779;28;20038;-57
2023/10/07 05:04:15;;;;;;;62.53;37.20;;;;;;;;;;2077507;28;20041;-58
2023/10/07 05:05:35;;;;;;;65.82;37.70;;;;;;;;;;2077689;28;20477;-58
2023/10/07 05:06:54;;;;;;;62.10;35.25;;;;;;;;;;2077665;28;20041;-58
2023/10/07 05:08:17;;;;;;;63.25;36.85;;;;;;;;;;2075124;28;20390;-58
2023/10/07 05:09:38;;;;;;;62.90;35.67;;;;;;;;;;2077724;28;20041;-57
2023/10/07 05:11:06;;;;;;;72.35;35.28;;;;;;;;;;2077616;28;20041;-57
2023/10/07 05:12:25;;;;;;;67.40;36.63;;;;;;;;;;2075015;28;20029;-58
2023/10/07 05:13:46;;;;;;;61.42;34.42;;;;;;;;;;2074809;28;20410;-58
2023/10/07 05:15:07;;;;;;;64.70;37.00;;;;;;;;;;2074643;28;20037;-58
2023/10/07 05:16:27;;;;;;;62.20;37.45;;;;;;;;;;2076134;28;20054;-58
2023/10/07 05:17:46;;;;;;;67.93;35.92;;;;;;;;;;2077920;28;20486;-62
2023/10/07 05:19:09;;;;;;;68.30;38.03;;;;;;;;;;2077957;28;20045;-64
2023/10/07 05:20:29;;;;;;;72.07;37.40;;;;;;;;;;2077645;28;20034;-58
2023/10/07 05:21:58;;;;;;;69.78;35.33;;;;;;;;;;2077676;28;20470;-58
2023/10/07 05:23:17;;;;;;;66.32;32.78;;;;;;;;;;2077280;28;20049;-58
2023/10/07 05:24:38;;;;;;;68.25;35.78;;;;;;;;;;2077562;28;20030;-58
2023/10/07 05:26:03;;;;;;;67.65;37.92;;;;;;;;;;2077517;28;20041;-58
2023/10/07 05:27:23;;;;;;;66.00;38.58;;;;;;;;;;2074868;28;20033;-58
2023/10/07 05:28:44;;;;;;;67.35;35.85;;;;;;;;;;2077542;28;20025;-58
2023/10/07 05:30:04;;;;;;;61.47;34.72;;;;;;;;;;2074667;28;20046;-58
2023/10/07 05:31:24;;;;;;;55.47;33.15;;;;;;;;;;2077428;28;20034;-58
2023/10/07 05:32:45;;;;;;;64.03;36.55;;;;;;;;;;2074744;28;20033;-58
2023/10/07 05:34:06;;;;;;;63.67;36.00;;;;;;;;;;2077517;28;20034;-58
2023/10/07 05:35:26;;;;;;;68.10;37.42;;;;;;;;;;2074826;28;20045;-58
2023/10/07 05:36:46;;;;;;;67.50;35.88;;;;;;;;;;2074948;28;20038;-58
2023/10/07 05:38:09;;;;;;;68.28;37.88;;;;;;;;;;2074070;28;20037;-58
2023/10/07 05:39:28;;;;;;;60.08;36.00;;;;;;;;;;2074518;28;20042;-58
2023/10/07 05:40:48;;;;;;;69.32;36.05;;;;;;;;;;2077415;28;20038;-58
2023/10/07 05:42:08;;;;;;;59.53;34.80;;;;;;;;;;2074318;28;20042;-58
2023/10/07 05:43:31;;;;;;;61.75;34.78;;;;;;;;;;2074699;28;20038;-58
2023/10/07 05:44:52;;;;;;;57.70;34.42;;;;;;;;;;2074406;28;20038;-58
2023/10/07 05:46:11;;;;;;;58.15;34.83;;;;;;;;;;2074828;28;20037;-58
2023/10/07 05:47:32;;;;;;;56.35;33.97;;;;;;;;;;2077357;28;20401;-58
2023/10/07 05:48:52;;;;;;;51.92;32.15;;;;;;;;;;2077277;28;20478;-58
2023/10/07 05:50:12;;;;;;;55.17;33.13;;;;;;;;;;2074618;28;20050;-58
2023/10/07 05:51:31;;;;;;;51.30;31.92;;;;;;;;;;2074886;28;20038;-58
2023/10/07 05:52:51;;;;;;;50.47;30.35;;;;;;;;;;2077418;28;20038;-58
2023/10/07 05:54:10;;;;;;;47.53;29.20;;;;;;;;;;2074506;28;20038;-58
2023/10/07 05:55:30;;;;;;;44.47;27.83;;;;;;;;;;2074615;28;20034;-58
2023/10/07 05:56:49;;;;;;;42.15;26.23;;;;;;;;;;2077259;28;20045;-58
2023/10/07 05:58:08;;;;;;;37.25;24.08;;;;;;;;;;2074565;28;20034;-58
2023/10/07 05:59:32;;;;;;;41.95;25.83;;;;;;;;;;2077319;28;20474;-58
2023/10/07 06:00:52;;;;;;;36.50;24.50;;;;;;;;;;2077190;28;20034;-58
2023/10/07 06:02:14;;;;;;;33.63;21.40;;;;;;;;;;2074662;28;20042;-58
2023/10/07 06:03:34;;;;;;;35.58;22.75;;;;;;;;;;2077196;28;20034;-58
2023/10/07 06:04:53;;;;;;;33.10;21.15;;;;;;;;;;2074496;28;20046;-58
2023/10/07 06:06:14;;;;;;;28.58;18.17;;;;;;;;;;2077334;28;20034;-58
2023/10/07 06:07:35;;;;;;;27.65;18.55;;;;;;;;;;2077168;28;20042;-58
2023/10/07 06:08:55;;;;;;;27.05;18.20;;;;;;;;;;2074577;28;20406;-58
2023/10/07 06:10:14;;;;;;;24.25;18.38;;;;;;;;;;2077176;28;20050;-58
2023/10/07 06:11:34;;;;;;;23.65;17.17;;;;;;;;;;2077335;28;20041;-58
2023/10/07 06:12:54;;;;;;;24.50;17.48;;;;;;;;;;2074382;28;20042;-58
2023/10/07 06:14:13;;;;;;;28.63;16.63;;;;;;;;;;2077183;28;20026;-58
2023/10/07 06:15:34;;;;;;;25.63;15.48;;;;;;;;;;2074157;28;20045;-59
2023/10/07 06:16:53;;;;;;;23.08;15.77;;;;;;;;;;2076999;28;20042;-58
2023/10/07 06:18:13;;;;;;;24.02;15.15;;;;;;;;;;2074497;28;20390;-58
2023/10/07 06:19:36;;;;;;;23.00;14.57;;;;;;;;;;2077139;28;20037;-58
2023/10/07 06:21:00;;;;;;;19.88;14.15;;;;;;;;;;2077279;28;20046;-58
2023/10/07 06:22:22;;;;;;;21.73;14.50;;;;;;;;;;2074306;28;20033;-58
2023/10/07 06:23:41;;;;;;;20.25;14.27;;;;;;;;;;2074481;28;20090;-59
2023/10/07 06:25:04;;;;;;;21.73;14.00;;;;;;;;;;2074371;28;20038;-59
2023/10/07 06:26:24;;;;;;;25.70;13.98;;;;;;;;;;2074243;28;20038;-58
2023/10/07 06:27:43;;;;;;;18.08;12.93;;;;;;;;;;2077053;28;20049;-58
2023/10/07 06:29:07;;;;;;;21.58;12.52;;;;;;;;;;2074321;28;20037;-59
2023/10/07 06:30:27;;;;;;;19.60;12.38;;;;;;;;;;2074272;28;20046;-58
2023/10/07 06:31:55;;;;;;;17.70;13.20;;;;;;;;;;2077079;28;20038;-58
2023/10/07 06:33:14;;;;;;;18.90;12.88;;;;;;;;;;2077112;28;20030;-58
2023/10/07 06:34:41;;;;;;;17.80;13.13;;;;;;;;;;2076935;28;20037;-58
2023/10/07 06:35:59;;;;;;;18.58;11.82;;;;;;;;;;2076998;28;20100;-59
2023/10/07 06:37:25;;;;;;;20.85;13.10;;;;;;;;;;2077099;28;20474;-58
2023/10/07 06:38:52;;;;;;;21.50;12.73;;;;;;;;;;2074413;28;20030;-59
2023/10/07 06:40:30;;;;;;;18.58;11.88;;;;;;;;;;2074589;28;20046;-59
2023/10/07 06:41:49;;;;;;;20.45;11.20;;;;;;;;;;2076976;28;20153;-58
2023/10/07 06:43:14;;;;;;;16.55;11.40;;;;;;;;;;2074452;28;20382;-58
2023/10/07 06:44:33;;;;;;;18.80;12.60;;;;;;;;;;2077071;28;20042;-58
2023/10/07 06:45:54;;;;;;;17.63;11.02;;;;;;;;;;2076913;28;20486;-58
2023/10/07 06:47:13;;;;;;;19.77;11.38;;;;;;;;;;2076909;28;20030;-58
2023/10/07 06:48:33;;;;;;;16.08;10.50;;;;;;;;;;2074332;28;20037;-58
2023/10/07 06:49:56;;;;;;;16.63;10.93;;;;;;;;;;2074092;28;20041;-58
2023/10/07 06:51:15;;;;;;;16.55;10.73;;;;;;;;;;2076077;28;20026;-59
2023/10/07 06:52:34;;;;;;;14.13;9.82;;;;;;;;;;2074232;28;20034;-58
2023/10/07 06:53:53;;;;;;;19.73;10.50;;;;;;;;;;2074019;28;20088;-59
2023/10/07 06:55:15;;;;;;;14.52;10.30;;;;;;;;;;2077002;28;20037;-58
2023/10/07 06:56:34;;;;;;;17.10;9.52;;;;;;;;;;2077013;28;20030;-58
2023/10/07 06:57:56;;;;;;;16.13;9.07;;;;;;;;;;2076762;28;20045;-58
2023/10/07 06:59:16;;;;;;;13.35;8.73;;;;;;;;;;2076839;28;20049;-59
2023/10/07 07:00:47;;;;;;;14.40;9.55;;;;;;;;;;2077000;28;20045;-58
2023/10/07 07:02:06;;;;;;;15.07;9.25;;;;;;;;;;2076990;28;20064;-59
2023/10/07 07:03:27;;;;;;;15.55;8.43;;;;;;;;;;2076889;28;20041;-58
2023/10/07 07:04:46;;;;;;;17.08;9.05;;;;;;;;;;2076703;28;20496;-58
2023/10/07 07:06:16;;;;;;;15.82;9.23;;;;;;;;;;2074208;28;20048;-59
2023/10/07 07:07:37;;;;;;;13.45;8.75;;;;;;;;;;2076693;28;20052;-59
2023/10/07 07:08:57;;;;;;;12.32;7.82;;;;;;;;;;2074216;28;20056;-58
2023/10/07 07:10:17;;;;;;;11.88;9.25;;;;;;;;;;2075228;28;20068;-58
2023/10/07 07:11:36;;;;;;;13.40;8.50;;;;;;;;;;2076638;28;20125;-58
2023/10/07 07:12:59;;;;;;;11.00;7.15;;;;;;;;;;2076580;28;20045;-58
2023/10/07 07:14:18;;;;;;;10.95;6.68;;;;;;;;;;2076650;28;20137;-58
2023/10/07 07:15:37;;;;;;;11.45;7.78;;;;;;;;;;2075831;28;20398;-58
2023/10/07 07:16:57;;;;;;;11.65;7.30;;;;;;;;;;2076787;28;20045;-58
2023/10/07 07:18:19;;;;;;;12.20;7.18;;;;;;;;;;2076504;28;20045;-58
2023/10/07 07:19:38;;;;;;;11.73;7.43;;;;;;;;;;2076675;28;20065;-58
2023/10/07 07:21:00;;;;;;;11.25;6.93;;;;;;;;;;2076655;28;20402;-58
2023/10/07 07:22:20;;;;;;;12.77;7.68;;;;;;;;;;2076783;28;20049;-58
2023/10/07 07:23:49;;;;;;;11.23;7.80;;;;;;;;;;2073939;28;20053;-58
2023/10/07 07:25:11;;;;;;;12.18;6.72;;;;;;;;;;2076741;28;20045;-58
2023/10/07 07:26:30;;;;;;;13.75;7.72;;;;;;;;;;2076625;28;20044;-58
2023/10/07 07:27:50;;;;;;;14.18;7.75;;;;;;;;;;2076623;28;20045;-58
2023/10/07 07:29:10;;;;;;;13.07;7.47;;;;;;;;;;2076291;28;20044;-58
2023/10/07 07:30:30;;;;;;;13.25;7.25;;;;;;;;;;2073899;28;20049;-58
2023/10/07 07:31:49;;;;;;;12.60;7.30;;;;;;;;;;2076667;28;20056;-58
2023/10/07 07:33:12;;;;;;;12.52;7.10;;;;;;;;;;2076690;28;20496;-59
2023/10/07 07:34:36;;;;;;;9.70;7.32;;;;;;;;;;2076733;28;20049;-58
2023/10/07 07:35:57;;;;;;;15.18;8.25;;;;;;;;;;2073987;28;20053;-58
2023/10/07 07:37:16;;;;;;;16.77;8.02;;;;;;;;;;2076691;28;20044;-58
2023/10/07 07:38:44;;;;;;;13.02;7.18;;;;;;;;;;2073888;28;20044;-58
2023/10/07 07:40:49;;;;;;;14.77;7.60;;;;;;;;;;2076703;28;20521;-58
2023/10/07 07:41:55;;;;;;;12.05;7.68;;;;;;;;;;2072096;28;20053;-58
2023/10/07 07:43:15;;;;;;;11.65;6.68;;;;;;;;;;2076645;28;20040;-58
2023/10/07 07:44:34;;;;;;;9.77;6.97;;;;;;;;;;2073883;28;20033;-59
2023/10/07 07:46:06;;;;;;;11.43;7.38;;;;;;;;;;2076527;28;20049;-58
2023/10/07 07:47:31;;;;;;;11.02;6.28;;;;;;;;;;2073328;28;20129;-58
2023/10/07 07:48:51;;;;;;;12.70;6.93;;;;;;;;;;2074072;28;20057;-58
2023/10/07 07:50:10;;;;;;;15.23;7.70;;;;;;;;;;2076515;28;20049;-58
2023/10/07 07:51:29;;;;;;;11.93;6.82;;;;;;;;;;2076484;28;20205;-58
2023/10/07 07:52:55;;;;;;;10.75;7.05;;;;;;;;;;2076642;28;20521;-58
2023/10/07 07:54:15;;;;;;;14.63;7.38;;;;;;;;;;2073924;28;20049;-58
2023/10/07 07:55:36;;;;;;;12.13;7.25;;;;;;;;;;2076565;28;20053;-58
2023/10/07 07:56:56;;;;;;;10.35;6.80;;;;;;;;;;2073714;28;20045;-58
2023/10/07 07:58:15;;;;;;;9.75;6.35;;;;;;;;;;2073786;28;20041;-58
2023/10/07 07:59:34;;;;;;;11.88;7.00;;;;;;;;;;2076537;28;20037;-59
2023/10/07 08:01:01;;;;;;;11.60;6.53;;;;;;;;;;2073790;28;20053;-58
2023/10/07 08:02:24;;;;;;;11.35;6.28;;;;;;;;;;2076483;28;20068;-58
2023/10/07 08:03:43;;;;;;;12.40;6.95;;;;;;;;;;2076402;28;20037;-58
2023/10/07 08:05:02;;;;;;;11.93;5.85;;;;;;;;;;2076559;28;20041;-58
2023/10/07 08:06:25;;;;;;;10.25;6.57;;;;;;;;;;2077741;28;20038;-58
2023/10/07 08:07:51;;;;;;;11.02;6.60;;;;;;;;;;2075257;28;20053;-58
2023/10/07 08:09:11;;;;;;;13.27;7.07;;;;;;;;;;2078077;28;20045;-58
2023/10/07 08:10:32;;;;;;;11.90;6.63;;;;;;;;;;2078180;28;20049;-58
2023/10/07 08:11:55;;;;;;;13.82;7.07;;;;;;;;;;2075463;28;20052;-58
2023/10/07 08:13:17;;;;;;;13.77;7.10;;;;;;;;;;2077548;28;20048;-58
2023/10/07 08:14:37;;;;;;;14.27;6.95;;;;;;;;;;2077592;28;20041;-58
2023/10/07 08:16:01;;;;;;;15.75;7.22;;;;;;;;;;2075213;28;20065;-58
2023/10/07 08:17:27;;;;;;;10.85;7.18;;;;;;;;;;2078142;28;20044;-57
2023/10/07 08:18:46;;;;;;;11.15;6.95;;;;;;;;;;2078043;28;20061;-58
2023/10/07 08:20:12;;;;;;;10.50;6.50;;;;;;;;;;2077427;28;20044;-59
2023/10/07 08:21:31;;;;;;;12.65;7.47;;;;;;;;;;2075172;28;20513;-57
2023/10/07 08:22:52;;;;;;;10.73;6.68;;;;;;;;;;2075340;28;20393;-59